createdAt,value
2018-06-23T00:02:26.952Z,71.90
2018-06-23T00:04:57.243Z,72.30
2018-06-23T00:09:57.109Z,72.20
2018-06-23T00:12:26.954Z,71.70
2018-06-23T00:14:56.880Z,71.40
2018-06-23T00:17:26.948Z,71.40
2018-06-23T00:19:57.935Z,71.20
2018-06-23T00:22:28.560Z,71.00
2018-06-23T00:24:59.628Z,72.10
2018-06-23T00:27:30.808Z,72.10
2018-06-23T00:30:01.960Z,72.20
2018-06-23T00:32:33.139Z,72.70
2018-06-23T00:35:04.030Z,72.20
2018-06-23T00:37:34.849Z,71.90
2018-06-23T00:42:37.028Z,71.90
2018-06-23T00:45:08.129Z,72.20
2018-06-23T00:47:39.258Z,71.70
2018-06-23T00:50:09.913Z,72.40
2018-06-23T00:52:39.927Z,72.80
2018-06-23T00:55:10.801Z,73.40
2018-06-23T00:57:40.928Z,73.30
2018-06-23T01:00:11.152Z,73.40
2018-06-23T01:02:41.138Z,72.90
2018-06-23T01:05:11.429Z,72.80
2018-06-23T01:07:41.440Z,73.10
2018-06-23T01:10:11.634Z,73.20
2018-06-23T01:12:42.221Z,73.10
2018-06-23T01:15:12.199Z,73.20
2018-06-23T01:17:42.395Z,73.20
2018-06-23T01:20:12.568Z,72.60
2018-06-23T01:22:42.762Z,73.10
2018-06-23T01:25:12.729Z,73.00
2018-06-23T01:27:42.868Z,72.90
2018-06-23T01:30:12.889Z,72.90
2018-06-23T01:32:43.170Z,72.60
2018-06-23T01:35:13.133Z,73.30
2018-06-23T01:37:43.159Z,72.90
2018-06-23T01:40:13.258Z,72.30
2018-06-23T01:45:12.749Z,72.20
2018-06-23T01:47:43.028Z,72.00
2018-06-23T01:50:13.249Z,72.20
2018-06-23T01:52:43.354Z,72.20
2018-06-23T01:55:13.520Z,72.30
2018-06-23T01:57:43.725Z,72.40
2018-06-23T02:00:14.128Z,72.80
2018-06-23T02:02:44.158Z,73.50
2018-06-23T02:05:14.233Z,73.10
2018-06-23T02:07:44.295Z,73.00
2018-06-23T02:10:15.363Z,72.30
2018-06-23T02:12:46.718Z,71.60
2018-06-23T02:15:17.995Z,71.40
2018-06-23T02:17:54.089Z,71.70
2018-06-23T02:20:29.032Z,71.80
2018-06-23T02:23:04.252Z,72.70
2018-06-23T02:25:39.518Z,72.90
2018-06-23T02:28:14.403Z,73.80
2018-06-23T02:30:49.524Z,74.40
2018-06-23T02:33:24.563Z,73.20
2018-06-23T02:35:54.639Z,73.80
2018-06-23T02:38:25.009Z,73.60
2018-06-23T02:40:55.066Z,74.20
2018-06-23T02:43:25.183Z,72.60
2018-06-23T02:45:55.303Z,73.10
2018-06-23T02:48:25.631Z,72.90
2018-06-23T02:50:55.877Z,72.60
2018-06-23T02:53:25.924Z,72.00
2018-06-23T02:55:56.419Z,72.90
2018-06-23T02:58:26.414Z,72.80
2018-06-23T03:00:56.581Z,73.20
2018-06-23T03:03:26.854Z,73.30
2018-06-23T03:05:57.114Z,72.80
2018-06-23T03:08:27.300Z,73.30
2018-06-23T03:10:57.426Z,73.30
2018-06-23T03:13:27.661Z,73.20
2018-06-23T03:15:57.970Z,73.30
2018-06-23T03:18:28.052Z,72.70
2018-06-23T03:20:58.206Z,72.90
2018-06-23T03:23:28.659Z,73.00
2018-06-23T03:25:58.578Z,74.20
2018-06-23T03:28:28.803Z,73.80
2018-06-23T03:30:59.016Z,74.50
2018-06-23T03:33:29.485Z,74.60
2018-06-23T03:35:59.904Z,74.60
2018-06-23T03:38:30.169Z,75.10
2018-06-23T03:41:00.349Z,75.00
2018-06-23T03:43:30.348Z,74.90
2018-06-23T03:46:00.169Z,74.10
2018-06-23T03:48:30.559Z,75.50
2018-06-23T03:51:01.080Z,75.20
2018-06-23T03:53:31.474Z,75.40
2018-06-23T03:56:02.761Z,75.70
2018-06-23T03:58:33.571Z,75.60
2018-06-23T04:01:09.204Z,75.40
2018-06-23T04:03:39.428Z,74.90
2018-06-23T04:08:41.301Z,75.90
2018-06-23T04:11:11.529Z,75.20
2018-06-23T04:13:41.854Z,76.00
2018-06-23T04:16:11.919Z,76.40
2018-06-23T04:18:47.618Z,76.60
2018-06-23T04:21:17.454Z,76.90
2018-06-23T04:23:48.255Z,76.40
2018-06-23T04:26:19.100Z,76.10
2018-06-23T04:28:50.068Z,76.40
2018-06-23T04:31:21.428Z,76.40
2018-06-23T04:40:27.135Z,76.10
2018-06-23T04:42:57.321Z,77.50
2018-06-23T04:45:27.973Z,78.70
2018-06-23T04:47:58.153Z,78.30
2018-06-23T04:50:28.502Z,78.20
2018-06-23T04:52:58.701Z,77.70
2018-06-23T04:55:28.654Z,77.40
2018-06-23T04:57:58.727Z,77.00
2018-06-23T05:02:58.253Z,77.30
2018-06-23T05:05:28.400Z,77.50
2018-06-23T05:07:58.738Z,76.70
2018-06-23T05:10:28.670Z,76.60
2018-06-23T05:12:58.944Z,76.50
2018-06-23T05:15:29.020Z,77.50
2018-06-23T05:17:59.178Z,78.60
2018-06-23T05:20:29.670Z,77.10
2018-06-23T05:22:59.791Z,77.50
2018-06-23T05:25:29.884Z,77.20
2018-06-23T05:28:00.222Z,77.40
2018-06-23T05:30:30.453Z,76.90
2018-06-23T05:33:00.529Z,76.50
2018-06-23T05:35:30.836Z,76.80
2018-06-23T05:38:00.890Z,77.30
2018-06-23T05:40:31.135Z,78.00
2018-06-23T05:43:01.348Z,77.90
2018-06-23T05:45:31.726Z,78.20
2018-06-23T05:48:01.948Z,78.00
2018-06-23T05:50:32.056Z,78.00
2018-06-23T05:53:02.316Z,77.30
2018-06-23T05:55:32.232Z,77.20
2018-06-23T05:58:02.388Z,78.20
2018-06-23T06:00:33.114Z,78.00
2018-06-23T06:03:03.321Z,77.90
2018-06-23T06:05:33.646Z,78.00
2018-06-23T06:08:03.891Z,78.20
2018-06-23T06:10:34.076Z,78.40
2018-06-23T06:13:04.240Z,79.20
2018-06-23T06:15:34.313Z,80.70
2018-06-23T06:18:04.793Z,82.20
2018-06-23T06:20:35.166Z,84.00
2018-06-23T06:23:05.333Z,85.30
2018-06-23T06:25:35.211Z,88.00
2018-06-23T06:28:05.341Z,89.40
2018-06-23T06:30:35.405Z,89.40
2018-06-23T06:33:05.681Z,90.20
2018-06-23T06:35:35.657Z,90.00
2018-06-23T06:38:05.818Z,89.50
2018-06-23T06:40:36.032Z,89.40
2018-06-23T06:43:06.170Z,89.20
2018-06-23T06:45:36.265Z,89.00
2018-06-23T06:48:06.575Z,90.00
2018-06-23T06:50:36.651Z,89.00
2018-06-23T06:53:06.798Z,87.30
2018-06-23T06:55:36.894Z,87.50
2018-06-23T06:58:07.364Z,85.20
2018-06-23T07:00:37.478Z,85.70
2018-06-23T07:03:07.700Z,84.70
2018-06-23T07:05:37.841Z,85.10
2018-06-23T07:08:07.845Z,84.60
2018-06-23T07:10:37.743Z,83.10
2018-06-23T07:13:08.334Z,82.80
2018-06-23T07:15:39.583Z,80.60
2018-06-23T07:18:10.732Z,82.40
2018-06-23T07:20:41.786Z,79.40
2018-06-23T07:25:41.964Z,78.90
2018-06-23T07:28:12.423Z,78.80
2018-06-23T07:30:42.543Z,77.40
2018-06-23T07:33:12.784Z,76.50
2018-06-23T07:35:43.066Z,77.40
2018-06-23T07:38:13.271Z,76.80
2018-06-23T07:40:43.768Z,77.70
2018-06-23T07:43:13.799Z,75.90
2018-06-23T07:45:43.839Z,75.70
2018-06-23T07:48:14.550Z,73.30
2018-06-23T07:50:44.869Z,74.40
2018-06-23T07:53:14.980Z,76.10
2018-06-23T07:55:45.737Z,76.40
2018-06-23T07:58:15.830Z,75.70
2018-06-23T08:00:46.046Z,75.10
2018-06-23T08:03:16.445Z,73.10
2018-06-23T08:05:46.530Z,72.50
2018-06-23T08:08:17.204Z,72.90
2018-06-23T08:13:17.167Z,70.70
2018-06-23T08:15:47.255Z,69.40
2018-06-23T08:18:17.944Z,66.50
2018-06-23T08:20:48.516Z,66.20
2018-06-23T08:23:18.639Z,64.90
2018-06-23T08:25:48.880Z,64.70
2018-06-23T08:28:20.460Z,64.50
2018-06-23T08:30:50.977Z,63.80
2018-06-23T08:33:21.394Z,64.30
2018-06-23T08:35:51.689Z,64.30
2018-06-23T08:38:22.050Z,65.70
2018-06-23T08:40:51.943Z,65.70
2018-06-23T08:43:21.890Z,66.70
2018-06-23T08:45:52.517Z,66.90
2018-06-23T08:48:23.585Z,67.20
2018-06-23T08:50:54.617Z,67.30
2018-06-23T08:53:25.970Z,66.10
2018-06-23T08:55:56.410Z,65.20
2018-06-23T08:58:26.752Z,64.60
2018-06-23T09:00:56.902Z,63.80
2018-06-23T09:03:27.167Z,63.80
2018-06-23T09:05:57.459Z,62.10
2018-06-23T09:08:28.100Z,55.60
2018-06-23T09:10:58.239Z,56.70
2018-06-23T09:13:28.560Z,55.90
2018-06-23T09:15:58.676Z,54.50
2018-06-23T09:18:28.833Z,54.60
2018-06-23T09:20:59.169Z,54.30
2018-06-23T09:23:29.341Z,54.80
2018-06-23T09:25:59.557Z,52.60
2018-06-23T09:28:29.686Z,53.20
2018-06-23T09:30:59.879Z,52.90
2018-06-23T09:33:30.169Z,53.20
2018-06-23T09:36:00.344Z,54.40
2018-06-23T09:38:30.546Z,55.80
2018-06-23T09:41:00.835Z,54.80
2018-06-23T09:43:31.092Z,53.20
2018-06-23T09:46:01.437Z,51.70
2018-06-23T09:48:31.961Z,51.60
2018-06-23T09:51:02.575Z,50.40
2018-06-23T09:53:33.544Z,50.50
2018-06-23T09:56:03.905Z,49.60
2018-06-23T09:58:34.213Z,49.20
2018-06-23T10:01:05.367Z,49.70
2018-06-23T10:03:35.786Z,48.90
2018-06-23T10:06:06.091Z,49.80
2018-06-23T10:08:36.330Z,49.30
2018-06-23T10:11:06.822Z,48.30
2018-06-23T10:13:37.150Z,48.20
2018-06-23T10:16:07.392Z,49.20
2018-06-23T10:18:37.681Z,50.60
2018-06-23T10:21:07.835Z,51.90
2018-06-23T10:23:37.902Z,53.10
2018-06-23T10:26:08.124Z,52.70
2018-06-23T10:28:38.555Z,52.80
2018-06-23T10:31:08.821Z,54.20
2018-06-23T10:33:39.177Z,54.70
2018-06-23T10:38:39.027Z,55.30
2018-06-23T10:41:09.159Z,55.30
2018-06-23T10:43:39.380Z,54.20
2018-06-23T10:46:09.545Z,53.30
2018-06-23T10:48:39.886Z,52.20
2018-06-23T10:51:10.040Z,52.40
2018-06-23T10:53:40.217Z,52.50
2018-06-23T10:56:10.559Z,53.70
2018-06-23T10:58:40.662Z,55.20
2018-06-23T11:01:10.788Z,54.60
2018-06-23T11:03:40.995Z,54.40
2018-06-23T11:06:11.317Z,55.60
2018-06-23T11:08:41.510Z,55.60
2018-06-23T11:11:11.673Z,56.20
2018-06-23T11:13:41.836Z,56.70
2018-06-23T11:16:11.941Z,55.60
2018-06-23T11:18:42.321Z,56.50
2018-06-23T11:21:12.465Z,57.30
2018-06-23T11:23:42.722Z,58.80
2018-06-23T11:26:12.802Z,59.40
2018-06-23T11:28:43.085Z,59.10
2018-06-23T11:31:13.161Z,59.10
2018-06-23T11:33:43.281Z,59.40
2018-06-23T11:36:13.705Z,60.60
2018-06-23T11:38:43.736Z,61.70
2018-06-23T11:41:15.066Z,61.20
2018-06-23T11:43:46.010Z,61.00
2018-06-23T11:46:17.148Z,61.90
2018-06-23T11:50:27.419Z,61.10
2018-06-23T11:52:58.040Z,59.80
2018-06-23T11:55:28.377Z,57.20
2018-06-23T11:57:58.686Z,58.00
2018-06-23T12:00:28.728Z,58.40
2018-06-23T12:02:59.094Z,57.20
2018-06-23T12:05:29.841Z,56.30
2018-06-23T12:08:00.267Z,56.40
2018-06-23T12:10:30.504Z,56.40
2018-06-23T12:13:00.705Z,55.60
2018-06-23T12:15:30.777Z,54.00
2018-06-23T12:18:01.132Z,54.10
2018-06-23T12:20:32.151Z,53.60
2018-06-23T12:23:02.751Z,54.60
2018-06-23T12:25:34.544Z,54.90
2018-06-23T12:28:05.861Z,55.30
2018-06-23T12:30:37.191Z,54.90
2018-06-23T12:33:07.422Z,54.90
2018-06-23T12:35:37.570Z,55.10
2018-06-23T12:38:07.605Z,56.00
2018-06-23T12:40:37.827Z,55.60
2018-06-23T12:43:08.515Z,56.20
2018-06-23T12:45:39.726Z,56.40
2018-06-23T12:48:10.666Z,52.70
2018-06-23T12:50:40.907Z,52.80
2018-06-23T12:53:12.250Z,50.30
2018-06-23T12:55:42.702Z,49.60
2018-06-23T12:58:13.022Z,49.70
2018-06-23T13:00:43.060Z,50.20
2018-06-23T13:03:13.381Z,50.50
2018-06-23T13:05:43.498Z,51.00
2018-06-23T13:10:43.700Z,52.90
2018-06-23T13:13:14.131Z,54.20
2018-06-23T13:15:44.324Z,55.10
2018-06-23T13:18:14.371Z,56.00
2018-06-23T13:20:44.671Z,56.20
2018-06-23T13:23:14.814Z,55.30
2018-06-23T13:25:45.465Z,55.50
2018-06-23T13:28:15.647Z,55.50
2018-06-23T13:30:45.650Z,54.60
2018-06-23T13:33:15.792Z,55.40
2018-06-23T13:35:45.966Z,53.40
2018-06-23T13:38:16.011Z,52.80
2018-06-23T13:40:46.280Z,52.70
2018-06-23T13:43:16.695Z,52.50
2018-06-23T13:45:46.781Z,52.40
2018-06-23T13:48:16.923Z,51.70
2018-06-23T13:50:47.127Z,51.30
2018-06-23T13:53:17.366Z,50.00
2018-06-23T13:55:47.682Z,50.40
2018-06-23T13:58:17.823Z,50.40
2018-06-23T14:03:17.658Z,49.90
2018-06-23T14:05:47.722Z,50.90
2018-06-23T14:08:18.609Z,51.40
2018-06-23T14:10:49.566Z,51.90
2018-06-23T14:15:51.788Z,54.00
2018-06-23T14:18:23.036Z,55.50
2018-06-23T14:20:53.516Z,56.20
2018-06-23T14:23:23.615Z,57.40
2018-06-23T14:25:53.735Z,57.50
2018-06-23T14:28:23.987Z,57.80
2018-06-23T14:30:54.113Z,57.90
2018-06-23T14:33:24.355Z,56.40
2018-06-23T14:35:54.615Z,56.20
2018-06-23T14:38:24.952Z,56.30
2018-06-23T14:40:54.988Z,56.30
2018-06-23T14:43:25.365Z,55.80
2018-06-23T14:45:55.371Z,54.60
2018-06-23T14:48:25.574Z,55.00
2018-06-23T14:50:55.949Z,53.70
2018-06-23T14:53:26.397Z,53.50
2018-06-23T14:55:56.625Z,52.40
2018-06-23T14:58:27.047Z,50.60
2018-06-23T15:00:57.303Z,50.20
2018-06-23T15:03:27.574Z,49.80
2018-06-23T15:05:57.868Z,50.20
2018-06-23T15:08:44.676Z,48.80
2018-06-23T15:12:29.257Z,48.50
2018-06-23T15:14:59.376Z,49.10
2018-06-23T15:17:30.384Z,48.80
2018-06-23T15:20:00.844Z,48.60
2018-06-23T15:22:30.877Z,48.10
2018-06-23T15:25:01.363Z,47.20
2018-06-23T15:27:31.913Z,45.80
2018-06-23T15:30:02.282Z,46.40
2018-06-23T15:32:32.472Z,46.50
2018-06-23T15:35:02.717Z,46.90
2018-06-23T15:37:32.908Z,47.70
2018-06-23T15:40:02.968Z,48.00
2018-06-23T15:42:33.262Z,47.30
2018-06-23T15:45:03.357Z,47.50
2018-06-23T15:47:34.071Z,46.70
2018-06-23T15:50:04.100Z,47.70
2018-06-23T15:52:34.014Z,47.50
2018-06-23T15:55:05.097Z,45.80
2018-06-23T16:00:05.560Z,43.00
2018-06-23T16:02:35.779Z,42.20
2018-06-23T16:05:06.082Z,42.20
2018-06-23T16:07:36.655Z,41.00
2018-06-23T16:10:16.920Z,41.50
2018-06-23T16:12:47.352Z,40.50
2018-06-23T16:15:18.054Z,39.20
2018-06-23T16:17:47.928Z,39.40
2018-06-23T16:20:18.714Z,39.20
2018-06-23T16:22:50.013Z,40.60
2018-06-23T16:25:21.028Z,41.00
2018-06-23T16:27:51.713Z,41.00
2018-06-23T16:32:52.852Z,42.70
2018-06-23T16:35:23.427Z,43.30
2018-06-23T16:37:53.333Z,43.30
2018-06-23T16:40:23.427Z,43.80
2018-06-23T16:42:53.768Z,44.20
2018-06-23T16:45:23.986Z,43.70
2018-06-23T16:47:54.201Z,44.20
2018-06-23T16:50:24.179Z,43.90
2018-06-23T16:52:54.518Z,44.20
2018-06-23T16:55:24.853Z,44.20
2018-06-23T16:57:54.933Z,45.00
2018-06-23T17:00:25.041Z,44.70
2018-06-23T17:02:55.207Z,45.10
2018-06-23T17:05:25.397Z,44.70
2018-06-23T17:07:55.466Z,45.00
2018-06-23T17:10:25.683Z,44.90
2018-06-23T17:12:55.872Z,44.50
2018-06-23T17:15:26.154Z,44.60
2018-06-23T17:17:56.340Z,45.00
2018-06-23T17:20:26.527Z,44.80
2018-06-23T17:22:56.817Z,42.90
2018-06-23T17:25:26.905Z,42.20
2018-06-23T17:27:57.005Z,41.10
2018-06-23T17:30:27.142Z,39.20
2018-06-23T17:32:57.462Z,39.40
2018-06-23T17:35:27.661Z,40.20
2018-06-23T17:37:57.774Z,41.10
2018-06-23T17:40:28.244Z,42.10
2018-06-23T17:42:58.384Z,42.30
2018-06-23T17:45:28.618Z,42.90
2018-06-23T17:47:58.711Z,42.60
2018-06-23T17:50:28.826Z,40.50
2018-06-23T17:52:59.180Z,39.60
2018-06-23T17:55:29.223Z,39.60
2018-06-23T18:00:27.517Z,40.50
2018-06-23T18:02:57.739Z,38.20
2018-06-23T18:05:27.983Z,40.50
2018-06-23T18:07:58.329Z,40.40
2018-06-23T18:10:28.529Z,40.30
2018-06-23T18:12:58.708Z,40.40
2018-06-23T18:15:29.051Z,40.20
2018-06-23T18:17:59.272Z,41.10
2018-06-23T18:20:29.640Z,41.20
2018-06-23T18:23:00.369Z,41.90
2018-06-23T18:25:30.633Z,42.10
2018-06-23T18:28:00.743Z,42.90
2018-06-23T18:30:31.067Z,43.40
2018-06-23T18:33:01.102Z,43.60
2018-06-23T18:35:31.396Z,42.20
2018-06-23T18:38:01.434Z,41.30
2018-06-23T18:40:31.768Z,40.40
2018-06-23T18:43:01.952Z,40.10
2018-06-23T18:48:01.895Z,42.10
2018-06-23T18:50:32.147Z,42.60
2018-06-23T18:53:02.815Z,43.20
2018-06-23T18:55:33.191Z,43.60
2018-06-23T18:58:03.348Z,43.80
2018-06-23T19:00:33.364Z,43.90
2018-06-23T19:03:03.569Z,44.10
2018-06-23T19:05:34.659Z,44.40
2018-06-23T19:08:04.826Z,45.00
2018-06-23T19:10:35.257Z,45.30
2018-06-23T19:13:05.739Z,45.50
2018-06-23T19:18:05.785Z,46.40
2018-06-23T19:20:35.981Z,46.60
2018-06-23T19:23:06.353Z,47.00
2018-06-23T19:25:36.628Z,47.10
2018-06-23T19:28:06.819Z,47.20
2018-06-23T19:30:37.151Z,47.40
2018-06-23T19:33:08.897Z,47.80
2018-06-23T19:35:39.063Z,48.20
2018-06-23T19:38:09.293Z,48.10
2018-06-23T19:40:39.445Z,48.30
2018-06-23T19:43:09.486Z,48.30
2018-06-23T19:45:39.829Z,48.50
2018-06-23T19:48:09.984Z,49.10
2018-06-23T19:50:40.160Z,48.70
2018-06-23T19:53:10.417Z,49.60
2018-06-23T19:55:41.408Z,48.90
2018-06-23T19:58:11.759Z,49.00
2018-06-23T20:00:42.019Z,49.30
2018-06-23T20:03:11.994Z,49.50
2018-06-23T20:05:42.288Z,49.80
2018-06-23T20:08:12.628Z,50.10
2018-06-23T20:10:42.848Z,50.90
2018-06-23T20:13:12.844Z,51.60
2018-06-23T20:15:43.088Z,52.70
2018-06-23T20:18:13.254Z,52.90
2018-06-23T20:20:44.414Z,53.60
2018-06-23T20:23:14.609Z,54.20
2018-06-23T20:25:44.893Z,54.90
2018-06-23T20:28:16.254Z,55.50
2018-06-23T20:30:47.635Z,56.10
2018-06-23T20:33:18.303Z,56.70
2018-06-23T20:35:48.402Z,57.00
2018-06-23T20:38:18.827Z,57.50
2018-06-23T20:40:49.006Z,57.70
2018-06-23T20:43:19.239Z,58.20
2018-06-23T20:45:49.428Z,58.40
2018-06-23T20:48:19.537Z,58.80
2018-06-23T20:50:49.758Z,58.90
2018-06-23T20:53:19.932Z,59.10
2018-06-23T20:55:50.344Z,59.00
2018-06-23T20:58:20.872Z,59.50
2018-06-23T21:00:55.043Z,59.40
2018-06-23T21:03:25.443Z,59.90
2018-06-23T21:05:55.714Z,60.30
2018-06-23T21:08:26.100Z,60.50
2018-06-23T21:10:56.294Z,60.10
2018-06-23T21:13:26.752Z,60.00
2018-06-23T21:15:56.902Z,60.50
2018-06-23T21:18:27.649Z,60.60
2018-06-23T21:20:57.938Z,60.70
2018-06-23T21:23:28.225Z,61.00
2018-06-23T21:28:28.607Z,61.30
2018-06-23T21:30:58.710Z,61.50
2018-06-23T21:33:28.836Z,61.50
2018-06-23T21:35:59.154Z,61.10
2018-06-23T21:38:29.327Z,61.00
2018-06-23T21:40:59.668Z,60.90
2018-06-23T21:43:29.836Z,61.10
2018-06-23T21:46:00.124Z,62.00
2018-06-23T21:51:00.297Z,62.70
2018-06-23T21:53:30.720Z,63.60
2018-06-23T21:56:00.668Z,63.50
2018-06-23T21:58:30.785Z,63.70
2018-06-23T22:01:01.004Z,63.80
2018-06-23T22:03:30.922Z,64.40
2018-06-23T22:06:01.165Z,64.60
2018-06-23T22:10:28.114Z,64.10
2018-06-23T22:12:58.282Z,64.40
2018-06-23T22:15:28.343Z,64.80
2018-06-23T22:17:58.568Z,64.70
2018-06-23T22:20:28.760Z,65.00
2018-06-23T22:22:58.922Z,65.10
2018-06-23T22:25:28.963Z,65.10
2018-06-23T22:27:59.199Z,65.50
2018-06-23T22:30:29.493Z,66.30
2018-06-23T22:32:59.457Z,66.40
2018-06-23T22:35:29.537Z,66.30
2018-06-23T22:37:59.828Z,66.40
2018-06-23T22:40:30.007Z,66.20
2018-06-23T22:43:00.181Z,66.80
2018-06-23T22:45:30.383Z,67.40
2018-06-23T22:48:00.520Z,67.50
2018-06-23T22:50:31.037Z,67.20
2018-06-23T22:53:01.082Z,67.50
2018-06-23T22:55:31.184Z,67.80
2018-06-23T22:58:01.443Z,68.00
2018-06-23T23:00:31.510Z,67.30
2018-06-23T23:03:01.766Z,67.30
2018-06-23T23:05:31.954Z,67.40
2018-06-23T23:08:02.189Z,67.50
2018-06-23T23:10:33.004Z,67.50
2018-06-23T23:13:03.277Z,67.60
2018-06-23T23:15:33.778Z,67.80
2018-06-23T23:18:04.054Z,67.80
2018-06-23T23:20:34.213Z,67.80
2018-06-23T23:23:04.299Z,68.30
2018-06-23T23:25:34.238Z,68.10
2018-06-23T23:28:04.583Z,68.50
2018-06-23T23:30:34.808Z,68.70
2018-06-23T23:33:05.209Z,69.10
2018-06-23T23:35:35.416Z,69.20
2018-06-23T23:38:05.462Z,69.30
2018-06-23T23:40:35.669Z,69.40
2018-06-23T23:43:05.968Z,69.40
2018-06-23T23:45:36.027Z,69.50
2018-06-23T23:48:06.410Z,69.40
2018-06-23T23:50:36.398Z,69.20
2018-06-23T23:53:06.562Z,69.10
2018-06-23T23:55:36.883Z,69.40
2018-06-23T23:58:07.119Z,69.30
